Weather at Houston Southwest Airport

Public forecast

Using degrees Fahrenheit for public forecast. Weather courtesy of forecast.io.

Current aviation weather report (METAR) for Houston Southwest Airport

Retrieved 2022/01/25 13:15 UTC (0 seconds ago):

KAXH 251315Z AUTO 33005KT 7SM OVC004 09/09 A3000 RMK AO2 T00930086

Closest aviation forecast (TAF) to Houston Southwest Airport

Closest forecast is Sugar Land Regional Airport, 11.7 nm (21.6 km) NW. Retrieved 2022/01/25 12:24 UTC (49 minutes ago):

TAF KSGR 251123Z 2512/2612 36006KT 5SM BR OVC005 TEMPO 2512/2515 3SM BR OVC003 FM251700 03008KT P6SM OVC015 FM252100 03009KT P6SM OVC020 FM260200 03008KT P6SM SCT015 BKN035 FM260500 04009KT P6SM SCT015 BKN025 FM261100 03011KT P6SM SCT025 BKN035